sensor_id;sensor_type;location;lat;lon;timestamp;P1;durP1;ratioP1;P2;durP2;ratioP2
23800;SDS011;12081;48.614;10.226;2023-11-19T00:00:19;11.43;;;9.63;;
23800;SDS011;12081;48.614;10.226;2023-11-19T00:03:03;9.33;;;8.33;;
23800;SDS011;12081;48.614;10.226;2023-11-19T00:05:49;11.23;;;9.27;;
23800;SDS011;12081;48.614;10.226;2023-11-19T00:08:34;10.30;;;8.93;;
23800;SDS011;12081;48.614;10.226;2023-11-19T00:11:18;10.03;;;8.57;;
23800;SDS011;12081;48.614;10.226;2023-11-19T00:14:02;12.30;;;9.83;;
23800;SDS011;12081;48.614;10.226;2023-11-19T00:16:46;12.70;;;9.43;;
23800;SDS011;12081;48.614;10.226;2023-11-19T00:19:30;10.73;;;9.47;;
23800;SDS011;12081;48.614;10.226;2023-11-19T00:22:15;12.27;;;8.80;;
23800;SDS011;12081;48.614;10.226;2023-11-19T00:24:59;11.20;;;9.10;;
23800;SDS011;12081;48.614;10.226;2023-11-19T00:27:44;10.70;;;9.33;;
23800;SDS011;12081;48.614;10.226;2023-11-19T00:30:28;10.87;;;8.87;;
23800;SDS011;12081;48.614;10.226;2023-11-19T00:33:14;11.83;;;8.97;;
23800;SDS011;12081;48.614;10.226;2023-11-19T00:35:58;9.57;;;8.57;;
23800;SDS011;12081;48.614;10.226;2023-11-19T00:38:43;10.00;;;8.47;;
23800;SDS011;12081;48.614;10.226;2023-11-19T00:41:27;10.70;;;8.77;;
23800;SDS011;12081;48.614;10.226;2023-11-19T00:44:11;9.87;;;8.40;;
23800;SDS011;12081;48.614;10.226;2023-11-19T00:46:55;9.33;;;7.50;;
23800;SDS011;12081;48.614;10.226;2023-11-19T00:49:39;9.30;;;8.40;;
23800;SDS011;12081;48.614;10.226;2023-11-19T00:52:23;9.13;;;8.13;;
23800;SDS011;12081;48.614;10.226;2023-11-19T00:55:07;9.17;;;8.27;;
23800;SDS011;12081;48.614;10.226;2023-11-19T00:57:53;9.77;;;8.13;;
23800;SDS011;12081;48.614;10.226;2023-11-19T01:00:39;8.67;;;7.73;;
23800;SDS011;12081;48.614;10.226;2023-11-19T01:03:24;8.67;;;7.77;;
23800;SDS011;12081;48.614;10.226;2023-11-19T01:06:07;9.73;;;7.63;;
23800;SDS011;12081;48.614;10.226;2023-11-19T01:08:51;8.77;;;7.37;;
23800;SDS011;12081;48.614;10.226;2023-11-19T01:11:36;8.53;;;7.50;;
23800;SDS011;12081;48.614;10.226;2023-11-19T01:14:20;8.63;;;7.73;;
23800;SDS011;12081;48.614;10.226;2023-11-19T01:17:04;8.00;;;7.20;;
23800;SDS011;12081;48.614;10.226;2023-11-19T01:19:48;8.03;;;7.00;;
23800;SDS011;12081;48.614;10.226;2023-11-19T01:22:33;8.13;;;7.10;;
23800;SDS011;12081;48.614;10.226;2023-11-19T01:25:17;8.47;;;7.53;;
23800;SDS011;12081;48.614;10.226;2023-11-19T01:28:01;7.73;;;6.97;;
23800;SDS011;12081;48.614;10.226;2023-11-19T01:30:46;7.53;;;6.73;;
23800;SDS011;12081;48.614;10.226;2023-11-19T01:33:30;7.80;;;6.93;;
23800;SDS011;12081;48.614;10.226;2023-11-19T01:36:14;7.47;;;6.60;;
23800;SDS011;12081;48.614;10.226;2023-11-19T01:38:58;7.47;;;6.67;;
23800;SDS011;12081;48.614;10.226;2023-11-19T01:41:42;7.90;;;7.10;;
23800;SDS011;12081;48.614;10.226;2023-11-19T01:44:26;8.10;;;6.97;;
23800;SDS011;12081;48.614;10.226;2023-11-19T01:47:10;8.37;;;7.53;;
23800;SDS011;12081;48.614;10.226;2023-11-19T01:49:54;8.30;;;7.17;;
23800;SDS011;12081;48.614;10.226;2023-11-19T01:52:40;8.50;;;6.80;;
23800;SDS011;12081;48.614;10.226;2023-11-19T01:55:25;8.07;;;7.27;;
23800;SDS011;12081;48.614;10.226;2023-11-19T01:58:14;9.33;;;7.10;;
23800;SDS011;12081;48.614;10.226;2023-11-19T02:00:58;8.73;;;7.83;;
23800;SDS011;12081;48.614;10.226;2023-11-19T02:03:43;7.90;;;7.03;;
23800;SDS011;12081;48.614;10.226;2023-11-19T02:06:28;8.63;;;7.73;;
23800;SDS011;12081;48.614;10.226;2023-11-19T02:09:13;8.97;;;8.07;;
23800;SDS011;12081;48.614;10.226;2023-11-19T02:11:57;8.67;;;7.70;;
23800;SDS011;12081;48.614;10.226;2023-11-19T02:14:42;10.83;;;8.00;;
23800;SDS011;12081;48.614;10.226;2023-11-19T02:17:29;7.50;;;6.73;;
23800;SDS011;12081;48.614;10.226;2023-11-19T02:20:18;8.20;;;7.40;;
23800;SDS011;12081;48.614;10.226;2023-11-19T02:23:04;10.60;;;8.03;;
23800;SDS011;12081;48.614;10.226;2023-11-19T02:29:03;7.73;;;7.00;;
23800;SDS011;12081;48.614;10.226;2023-11-19T02:31:48;9.23;;;6.90;;
23800;SDS011;12081;48.614;10.226;2023-11-19T02:34:31;7.90;;;7.10;;
23800;SDS011;12081;48.614;10.226;2023-11-19T02:37:16;8.93;;;7.80;;
23800;SDS011;12081;48.614;10.226;2023-11-19T02:40:00;7.50;;;6.63;;
23800;SDS011;12081;48.614;10.226;2023-11-19T02:42:46;7.47;;;6.77;;
23800;SDS011;12081;48.614;10.226;2023-11-19T02:45:30;7.80;;;7.00;;
23800;SDS011;12081;48.614;10.226;2023-11-19T02:48:15;9.13;;;7.47;;
23800;SDS011;12081;48.614;10.226;2023-11-19T02:50:59;7.53;;;6.67;;
23800;SDS011;12081;48.614;10.226;2023-11-19T02:53:44;8.73;;;7.87;;
23800;SDS011;12081;48.614;10.226;2023-11-19T02:56:31;7.80;;;6.87;;
23800;SDS011;12081;48.614;10.226;2023-11-19T02:59:19;7.77;;;6.70;;
23800;SDS011;12081;48.614;10.226;2023-11-19T03:02:11;8.97;;;8.03;;
23800;SDS011;12081;48.614;10.226;2023-11-19T03:04:55;8.17;;;7.33;;
23800;SDS011;12081;48.614;10.226;2023-11-19T03:07:39;8.37;;;7.47;;
23800;SDS011;12081;48.614;10.226;2023-11-19T03:10:27;9.73;;;8.60;;
23800;SDS011;12081;48.614;10.226;2023-11-19T03:13:13;8.10;;;7.30;;
23800;SDS011;12081;48.614;10.226;2023-11-19T03:15:57;8.47;;;7.57;;
23800;SDS011;12081;48.614;10.226;2023-11-19T03:18:41;8.33;;;7.50;;
23800;SDS011;12081;48.614;10.226;2023-11-19T03:21:28;9.40;;;7.37;;
23800;SDS011;12081;48.614;10.226;2023-11-19T03:24:14;7.87;;;7.07;;
23800;SDS011;12081;48.614;10.226;2023-11-19T03:26:59;8.00;;;7.20;;
23800;SDS011;12081;48.614;10.226;2023-11-19T03:29:43;7.80;;;7.00;;
23800;SDS011;12081;48.614;10.226;2023-11-19T06:31:10;7.57;;;6.60;;
23800;SDS011;12081;48.614;10.226;2023-11-19T06:33:55;7.67;;;6.57;;
23800;SDS011;12081;48.614;10.226;2023-11-19T06:36:39;7.47;;;6.77;;
23800;SDS011;12081;48.614;10.226;2023-11-19T06:39:23;7.73;;;6.93;;
23800;SDS011;12081;48.614;10.226;2023-11-19T06:42:07;7.47;;;6.73;;
23800;SDS011;12081;48.614;10.226;2023-11-19T06:44:51;8.20;;;6.73;;
23800;SDS011;12081;48.614;10.226;2023-11-19T06:47:35;7.77;;;6.90;;
23800;SDS011;12081;48.614;10.226;2023-11-19T06:50:19;6.67;;;5.97;;
23800;SDS011;12081;48.614;10.226;2023-11-19T06:53:03;7.27;;;6.47;;
23800;SDS011;12081;48.614;10.226;2023-11-19T06:55:50;7.67;;;6.50;;
23800;SDS011;12081;48.614;10.226;2023-11-19T06:58:37;7.73;;;5.90;;
23800;SDS011;12081;48.614;10.226;2023-11-19T07:01:21;6.23;;;5.63;;
23800;SDS011;12081;48.614;10.226;2023-11-19T07:04:06;7.27;;;6.37;;
23800;SDS011;12081;48.614;10.226;2023-11-19T07:06:53;6.93;;;6.10;;
23800;SDS011;12081;48.614;10.226;2023-11-19T07:09:37;6.33;;;5.37;;
23800;SDS011;12081;48.614;10.226;2023-11-19T07:12:21;12.07;;;10.77;;
23800;SDS011;12081;48.614;10.226;2023-11-19T07:15:05;9.67;;;8.23;;
23800;SDS011;12081;48.614;10.226;2023-11-19T07:17:50;10.73;;;8.60;;
23800;SDS011;12081;48.614;10.226;2023-11-19T07:20:34;10.80;;;9.03;;
23800;SDS011;12081;48.614;10.226;2023-11-19T07:23:18;8.20;;;7.03;;
23800;SDS011;12081;48.614;10.226;2023-11-19T07:26:04;9.00;;;8.10;;
23800;SDS011;12081;48.614;10.226;2023-11-19T07:28:51;9.63;;;8.03;;
23800;SDS011;12081;48.614;10.226;2023-11-19T07:31:35;8.30;;;6.10;;
23800;SDS011;12081;48.614;10.226;2023-11-19T07:34:20;6.87;;;5.80;;
23800;SDS011;12081;48.614;10.226;2023-11-19T07:37:05;9.60;;;7.33;;
23800;SDS011;12081;48.614;10.226;2023-11-19T07:39:49;7.77;;;6.93;;
23800;SDS011;12081;48.614;10.226;2023-11-19T07:42:34;9.00;;;6.93;;
23800;SDS011;12081;48.614;10.226;2023-11-19T07:45:19;7.83;;;5.70;;
23800;SDS011;12081;48.614;10.226;2023-11-19T07:48:03;7.17;;;5.80;;
23800;SDS011;12081;48.614;10.226;2023-11-19T07:50:47;6.57;;;5.43;;
23800;SDS011;12081;48.614;10.226;2023-11-19T07:53:33;6.10;;;5.37;;
23800;SDS011;12081;48.614;10.226;2023-11-19T07:56:18;8.00;;;5.97;;
23800;SDS011;12081;48.614;10.226;2023-11-19T07:59:02;5.20;;;4.70;;
23800;SDS011;12081;48.614;10.226;2023-11-19T08:01:46;5.77;;;4.50;;
23800;SDS011;12081;48.614;10.226;2023-11-19T08:04:31;5.53;;;4.60;;
23800;SDS011;12081;48.614;10.226;2023-11-19T08:07:15;5.70;;;5.00;;
23800;SDS011;12081;48.614;10.226;2023-11-19T08:09:59;5.67;;;4.03;;
23800;SDS011;12081;48.614;10.226;2023-11-19T08:12:44;7.07;;;4.63;;
23800;SDS011;12081;48.614;10.226;2023-11-19T08:15:28;5.33;;;4.20;;
23800;SDS011;12081;48.614;10.226;2023-11-19T08:18:12;5.43;;;4.87;;
23800;SDS011;12081;48.614;10.226;2023-11-19T08:20:56;6.17;;;5.00;;
23800;SDS011;12081;48.614;10.226;2023-11-19T08:23:43;5.90;;;5.00;;
23800;SDS011;12081;48.614;10.226;2023-11-19T08:26:27;5.37;;;4.87;;
23800;SDS011;12081;48.614;10.226;2023-11-19T08:29:11;5.07;;;4.57;;
23800;SDS011;12081;48.614;10.226;2023-11-19T08:31:54;8.77;;;6.10;;
23800;SDS011;12081;48.614;10.226;2023-11-19T08:34:38;6.33;;;4.60;;
23800;SDS011;12081;48.614;10.226;2023-11-19T08:37:23;8.53;;;7.53;;
23800;SDS011;12081;48.614;10.226;2023-11-19T08:40:07;10.23;;;7.73;;
23800;SDS011;12081;48.614;10.226;2023-11-19T08:42:53;6.40;;;5.23;;
23800;SDS011;12081;48.614;10.226;2023-11-19T08:45:37;5.50;;;4.93;;
23800;SDS011;12081;48.614;10.226;2023-11-19T08:48:21;5.13;;;4.60;;
23800;SDS011;12081;48.614;10.226;2023-11-19T08:51:05;7.80;;;5.03;;
23800;SDS011;12081;48.614;10.226;2023-11-19T08:53:50;4.60;;;4.20;;
23800;SDS011;12081;48.614;10.226;2023-11-19T08:56:34;5.67;;;3.87;;
23800;SDS011;12081;48.614;10.226;2023-11-19T08:59:19;3.83;;;3.37;;
23800;SDS011;12081;48.614;10.226;2023-11-19T09:02:03;5.97;;;3.60;;
23800;SDS011;12081;48.614;10.226;2023-11-19T09:04:48;3.93;;;3.50;;
23800;SDS011;12081;48.614;10.226;2023-11-19T09:07:32;3.90;;;3.60;;
23800;SDS011;12081;48.614;10.226;2023-11-19T09:10:16;4.40;;;3.93;;
23800;SDS011;12081;48.614;10.226;2023-11-19T09:13:00;4.17;;;3.30;;
23800;SDS011;12081;48.614;10.226;2023-11-19T09:15:44;4.03;;;3.63;;
23800;SDS011;12081;48.614;10.226;2023-11-19T09:18:29;3.60;;;2.87;;
23800;SDS011;12081;48.614;10.226;2023-11-19T09:21:13;3.20;;;2.90;;
23800;SDS011;12081;48.614;10.226;2023-11-19T09:23:57;2.90;;;2.57;;
23800;SDS011;12081;48.614;10.226;2023-11-19T09:26:41;2.73;;;2.23;;
23800;SDS011;12081;48.614;10.226;2023-11-19T09:29:26;3.57;;;2.70;;
23800;SDS011;12081;48.614;10.226;2023-11-19T09:32:10;2.53;;;2.33;;
23800;SDS011;12081;48.614;10.226;2023-11-19T09:34:54;2.40;;;2.20;;
23800;SDS011;12081;48.614;10.226;2023-11-19T09:37:38;3.00;;;2.40;;
23800;SDS011;12081;48.614;10.226;2023-11-19T09:40:23;2.27;;;1.60;;
23800;SDS011;12081;48.614;10.226;2023-11-19T09:43:07;3.70;;;1.83;;
23800;SDS011;12081;48.614;10.226;2023-11-19T09:45:51;1.90;;;1.60;;
23800;SDS011;12081;48.614;10.226;2023-11-19T09:48:36;2.83;;;1.70;;
23800;SDS011;12081;48.614;10.226;2023-11-19T09:51:21;1.80;;;1.70;;
23800;SDS011;12081;48.614;10.226;2023-11-19T09:54:08;3.57;;;1.70;;
23800;SDS011;12081;48.614;10.226;2023-11-19T09:56:53;4.70;;;3.70;;
23800;SDS011;12081;48.614;10.226;2023-11-19T09:59:42;2.60;;;1.40;;
23800;SDS011;12081;48.614;10.226;2023-11-19T10:02:29;1.30;;;1.20;;
23800;SDS011;12081;48.614;10.226;2023-11-19T10:05:16;1.43;;;1.27;;
23800;SDS011;12081;48.614;10.226;2023-11-19T10:08:04;1.40;;;1.30;;
23800;SDS011;12081;48.614;10.226;2023-11-19T10:10:49;1.40;;;1.30;;
23800;SDS011;12081;48.614;10.226;2023-11-19T10:13:36;1.93;;;1.30;;
23800;SDS011;12081;48.614;10.226;2023-11-19T10:16:28;2.43;;;1.30;;
23800;SDS011;12081;48.614;10.226;2023-11-19T10:19:20;1.57;;;1.47;;
23800;SDS011;12081;48.614;10.226;2023-11-19T10:22:04;4.00;;;1.20;;
23800;SDS011;12081;48.614;10.226;2023-11-19T10:24:49;1.63;;;1.33;;
23800;SDS011;12081;48.614;10.226;2023-11-19T10:27:34;2.20;;;1.50;;
23800;SDS011;12081;48.614;10.226;2023-11-19T10:30:20;1.63;;;1.20;;
23800;SDS011;12081;48.614;10.226;2023-11-19T10:33:06;1.20;;;1.03;;
23800;SDS011;12081;48.614;10.226;2023-11-19T10:35:59;1.43;;;1.17;;
23800;SDS011;12081;48.614;10.226;2023-11-19T10:38:53;3.47;;;2.13;;
23800;SDS011;12081;48.614;10.226;2023-11-19T10:41:38;2.47;;;1.53;;
23800;SDS011;12081;48.614;10.226;2023-11-19T10:44:32;11.23;;;7.83;;
23800;SDS011;12081;48.614;10.226;2023-11-19T10:47:22;2.47;;;0.90;;
23800;SDS011;12081;48.614;10.226;2023-11-19T10:50:07;8.33;;;5.20;;
23800;SDS011;12081;48.614;10.226;2023-11-19T10:52:52;9.93;;;5.90;;
23800;SDS011;12081;48.614;10.226;2023-11-19T10:55:43;6.23;;;2.73;;
23800;SDS011;12081;48.614;10.226;2023-11-19T10:58:32;10.70;;;6.23;;
23800;SDS011;12081;48.614;10.226;2023-11-19T11:01:19;2.93;;;2.00;;
23800;SDS011;12081;48.614;10.226;2023-11-19T11:04:07;1.57;;;1.47;;
23800;SDS011;12081;48.614;10.226;2023-11-19T11:06:58;1.17;;;1.00;;
23800;SDS011;12081;48.614;10.226;2023-11-19T11:09:45;2.57;;;2.00;;
23800;SDS011;12081;48.614;10.226;2023-11-19T11:12:32;1.50;;;1.20;;
23800;SDS011;12081;48.614;10.226;2023-11-19T11:15:21;1.00;;;0.90;;
23800;SDS011;12081;48.614;10.226;2023-11-19T11:18:06;2.87;;;2.57;;
23800;SDS011;12081;48.614;10.226;2023-11-19T11:20:57;2.77;;;1.77;;
23800;SDS011;12081;48.614;10.226;2023-11-19T11:24:00;1.30;;;1.20;;
23800;SDS011;12081;48.614;10.226;2023-11-19T11:35:55;1.80;;;1.70;;
23800;SDS011;12081;48.614;10.226;2023-11-19T11:38:49;1.37;;;1.27;;
23800;SDS011;12081;48.614;10.226;2023-11-19T11:41:33;1.77;;;1.60;;
23800;SDS011;12081;48.614;10.226;2023-11-19T11:44:17;1.10;;;1.00;;
23800;SDS011;12081;48.614;10.226;2023-11-19T11:47:22;1.80;;;1.70;;
23800;SDS011;12081;48.614;10.226;2023-11-19T11:50:10;2.27;;;1.60;;
23800;SDS011;12081;48.614;10.226;2023-11-19T11:58:35;1.67;;;1.53;;
23800;SDS011;12081;48.614;10.226;2023-11-19T12:01:21;1.63;;;1.20;;
23800;SDS011;12081;48.614;10.226;2023-11-19T12:04:05;1.63;;;1.33;;
23800;SDS011;12081;48.614;10.226;2023-11-19T12:10:06;1.40;;;1.30;;
23800;SDS011;12081;48.614;10.226;2023-11-19T12:12:58;1.80;;;1.40;;
23800;SDS011;12081;48.614;10.226;2023-11-19T12:18:39;3.20;;;2.87;;
23800;SDS011;12081;48.614;10.226;2023-11-19T12:21:28;2.90;;;2.60;;
23800;SDS011;12081;48.614;10.226;2023-11-19T12:24:16;4.10;;;3.40;;
23800;SDS011;12081;48.614;10.226;2023-11-19T12:27:01;1.50;;;1.40;;
23800;SDS011;12081;48.614;10.226;2023-11-19T12:29:45;2.20;;;0.80;;
23800;SDS011;12081;48.614;10.226;2023-11-19T12:32:37;0.87;;;0.63;;
23800;SDS011;12081;48.614;10.226;2023-11-19T12:35:22;0.70;;;0.60;;
23800;SDS011;12081;48.614;10.226;2023-11-19T12:38:07;1.50;;;0.53;;
23800;SDS011;12081;48.614;10.226;2023-11-19T12:41:04;1.60;;;0.40;;
23800;SDS011;12081;48.614;10.226;2023-11-19T12:43:48;1.90;;;0.67;;
23800;SDS011;12081;48.614;10.226;2023-11-19T12:46:34;0.97;;;0.50;;
23800;SDS011;12081;48.614;10.226;2023-11-19T12:49:18;0.80;;;0.60;;
23800;SDS011;12081;48.614;10.226;2023-11-19T12:52:02;0.90;;;0.50;;
23800;SDS011;12081;48.614;10.226;2023-11-19T12:54:54;1.30;;;0.60;;
23800;SDS011;12081;48.614;10.226;2023-11-19T12:57:39;0.73;;;0.50;;
23800;SDS011;12081;48.614;10.226;2023-11-19T13:00:26;0.90;;;0.73;;
23800;SDS011;12081;48.614;10.226;2023-11-19T13:03:10;0.93;;;0.57;;
23800;SDS011;12081;48.614;10.226;2023-11-19T13:06:00;1.43;;;0.50;;
23800;SDS011;12081;48.614;10.226;2023-11-19T13:08:46;0.83;;;0.60;;
23800;SDS011;12081;48.614;10.226;2023-11-19T13:11:37;0.73;;;0.40;;
23800;SDS011;12081;48.614;10.226;2023-11-19T13:14:35;2.83;;;0.53;;
23800;SDS011;12081;48.614;10.226;2023-11-19T13:17:20;0.50;;;0.30;;
23800;SDS011;12081;48.614;10.226;2023-11-19T13:20:04;0.80;;;0.20;;
23800;SDS011;12081;48.614;10.226;2023-11-19T13:23:02;1.13;;;0.27;;
23800;SDS011;12081;48.614;10.226;2023-11-19T13:25:47;0.40;;;0.20;;
23800;SDS011;12081;48.614;10.226;2023-11-19T13:28:32;0.37;;;0.17;;
23800;SDS011;12081;48.614;10.226;2023-11-19T13:31:16;0.30;;;0.10;;
23800;SDS011;12081;48.614;10.226;2023-11-19T13:34:00;1.30;;;0.23;;
23800;SDS011;12081;48.614;10.226;2023-11-19T13:36:44;0.33;;;0.27;;
23800;SDS011;12081;48.614;10.226;2023-11-19T13:39:28;0.53;;;0.10;;
23800;SDS011;12081;48.614;10.226;2023-11-19T13:42:12;0.73;;;0.10;;
23800;SDS011;12081;48.614;10.226;2023-11-19T13:44:56;0.30;;;0.10;;
23800;SDS011;12081;48.614;10.226;2023-11-19T13:47:41;0.73;;;0.17;;
23800;SDS011;12081;48.614;10.226;2023-11-19T13:50:26;0.80;;;0.50;;
23800;SDS011;12081;48.614;10.226;2023-11-19T13:53:12;0.23;;;0.20;;
23800;SDS011;12081;48.614;10.226;2023-11-19T13:55:56;0.93;;;0.20;;
23800;SDS011;12081;48.614;10.226;2023-11-19T13:58:40;1.43;;;0.30;;
23800;SDS011;12081;48.614;10.226;2023-11-19T14:01:25;0.33;;;0.27;;
23800;SDS011;12081;48.614;10.226;2023-11-19T14:04:09;0.37;;;0.20;;
23800;SDS011;12081;48.614;10.226;2023-11-19T14:06:53;0.97;;;0.40;;
23800;SDS011;12081;48.614;10.226;2023-11-19T14:09:39;0.40;;;0.20;;
23800;SDS011;12081;48.614;10.226;2023-11-19T14:12:26;0.80;;;0.30;;
23800;SDS011;12081;48.614;10.226;2023-11-19T14:15:10;1.03;;;0.30;;
23800;SDS011;12081;48.614;10.226;2023-11-19T14:17:57;1.00;;;0.30;;
23800;SDS011;12081;48.614;10.226;2023-11-19T14:20:41;2.23;;;0.30;;
23800;SDS011;12081;48.614;10.226;2023-11-19T14:23:26;0.80;;;0.40;;
23800;SDS011;12081;48.614;10.226;2023-11-19T14:26:11;1.90;;;0.40;;
23800;SDS011;12081;48.614;10.226;2023-11-19T14:28:55;1.17;;;0.30;;
23800;SDS011;12081;48.614;10.226;2023-11-19T14:31:39;3.20;;;0.37;;
23800;SDS011;12081;48.614;10.226;2023-11-19T14:34:23;0.60;;;0.20;;
23800;SDS011;12081;48.614;10.226;2023-11-19T14:37:09;1.07;;;0.30;;
23800;SDS011;12081;48.614;10.226;2023-11-19T14:39:53;1.03;;;0.30;;
23800;SDS011;12081;48.614;10.226;2023-11-19T14:42:37;3.20;;;0.73;;
23800;SDS011;12081;48.614;10.226;2023-11-19T14:45:24;4.53;;;2.33;;
23800;SDS011;12081;48.614;10.226;2023-11-19T14:48:09;12.40;;;5.80;;
23800;SDS011;12081;48.614;10.226;2023-11-19T14:50:53;11.20;;;5.60;;
23800;SDS011;12081;48.614;10.226;2023-11-19T14:53:37;26.83;;;14.83;;
23800;SDS011;12081;48.614;10.226;2023-11-19T14:56:21;9.17;;;4.60;;
23800;SDS011;12081;48.614;10.226;2023-11-19T14:59:06;4.50;;;0.60;;
23800;SDS011;12081;48.614;10.226;2023-11-19T15:01:51;0.90;;;0.47;;
23800;SDS011;12081;48.614;10.226;2023-11-19T15:04:35;1.87;;;0.70;;
23800;SDS011;12081;48.614;10.226;2023-11-19T15:07:19;1.80;;;1.50;;
23800;SDS011;12081;48.614;10.226;2023-11-19T15:10:05;5.47;;;2.83;;
23800;SDS011;12081;48.614;10.226;2023-11-19T15:12:56;3.10;;;1.73;;
23800;SDS011;12081;48.614;10.226;2023-11-19T15:15:41;2.47;;;1.60;;
23800;SDS011;12081;48.614;10.226;2023-11-19T15:18:25;3.87;;;2.60;;
23800;SDS011;12081;48.614;10.226;2023-11-19T15:21:10;4.77;;;3.03;;
23800;SDS011;12081;48.614;10.226;2023-11-19T15:23:54;3.00;;;1.80;;
23800;SDS011;12081;48.614;10.226;2023-11-19T15:26:38;1.87;;;0.97;;
23800;SDS011;12081;48.614;10.226;2023-11-19T15:29:22;4.90;;;3.63;;
23800;SDS011;12081;48.614;10.226;2023-11-19T15:32:06;4.13;;;2.57;;
23800;SDS011;12081;48.614;10.226;2023-11-19T15:34:51;2.90;;;2.07;;
23800;SDS011;12081;48.614;10.226;2023-11-19T15:37:36;4.33;;;1.90;;
23800;SDS011;12081;48.614;10.226;2023-11-19T15:40:26;3.57;;;2.10;;
23800;SDS011;12081;48.614;10.226;2023-11-19T15:43:11;2.87;;;1.77;;
23800;SDS011;12081;48.614;10.226;2023-11-19T15:45:55;4.10;;;2.17;;
23800;SDS011;12081;48.614;10.226;2023-11-19T15:48:39;2.63;;;1.70;;
23800;SDS011;12081;48.614;10.226;2023-11-19T15:51:23;1.10;;;0.60;;
23800;SDS011;12081;48.614;10.226;2023-11-19T15:54:07;2.50;;;1.60;;
23800;SDS011;12081;48.614;10.226;2023-11-19T15:56:52;10.23;;;5.10;;
23800;SDS011;12081;48.614;10.226;2023-11-19T15:59:36;6.97;;;3.90;;
23800;SDS011;12081;48.614;10.226;2023-11-19T16:02:21;2.87;;;1.57;;
23800;SDS011;12081;48.614;10.226;2023-11-19T16:05:05;16.67;;;8.97;;
23800;SDS011;12081;48.614;10.226;2023-11-19T16:07:52;3.27;;;1.93;;
23800;SDS011;12081;48.614;10.226;2023-11-19T16:10:37;0.90;;;0.60;;
23800;SDS011;12081;48.614;10.226;2023-11-19T16:13:23;1.40;;;0.60;;
23800;SDS011;12081;48.614;10.226;2023-11-19T16:16:08;1.90;;;1.13;;
23800;SDS011;12081;48.614;10.226;2023-11-19T16:18:53;17.90;;;8.67;;
23800;SDS011;12081;48.614;10.226;2023-11-19T16:21:37;2.63;;;1.70;;
23800;SDS011;12081;48.614;10.226;2023-11-19T16:24:21;2.60;;;1.47;;
23800;SDS011;12081;48.614;10.226;2023-11-19T16:27:05;1.60;;;1.00;;
23800;SDS011;12081;48.614;10.226;2023-11-19T16:29:49;1.93;;;1.33;;
23800;SDS011;12081;48.614;10.226;2023-11-19T16:32:35;1.50;;;1.30;;
23800;SDS011;12081;48.614;10.226;2023-11-19T16:35:37;1.83;;;1.40;;
23800;SDS011;12081;48.614;10.226;2023-11-19T16:38:21;2.03;;;1.40;;
23800;SDS011;12081;48.614;10.226;2023-11-19T16:41:05;3.07;;;1.47;;
23800;SDS011;12081;48.614;10.226;2023-11-19T16:43:49;1.87;;;1.10;;
23800;SDS011;12081;48.614;10.226;2023-11-19T16:46:36;1.97;;;1.20;;
23800;SDS011;12081;48.614;10.226;2023-11-19T16:49:20;2.60;;;1.30;;
23800;SDS011;12081;48.614;10.226;2023-11-19T16:52:04;1.27;;;0.90;;
23800;SDS011;12081;48.614;10.226;2023-11-19T16:54:49;4.50;;;3.27;;
23800;SDS011;12081;48.614;10.226;2023-11-19T16:57:33;2.43;;;2.23;;
23800;SDS011;12081;48.614;10.226;2023-11-19T17:00:17;6.67;;;3.77;;
23800;SDS011;12081;48.614;10.226;2023-11-19T17:03:02;6.23;;;5.20;;
23800;SDS011;12081;48.614;10.226;2023-11-19T17:05:48;4.57;;;3.67;;
23800;SDS011;12081;48.614;10.226;2023-11-19T17:08:32;3.53;;;3.17;;
23800;SDS011;12081;48.614;10.226;2023-11-19T17:11:17;3.53;;;2.60;;
23800;SDS011;12081;48.614;10.226;2023-11-19T17:14:01;2.70;;;2.07;;
23800;SDS011;12081;48.614;10.226;2023-11-19T17:16:45;2.50;;;2.30;;
23800;SDS011;12081;48.614;10.226;2023-11-19T17:19:29;5.93;;;1.70;;
23800;SDS011;12081;48.614;10.226;2023-11-19T17:22:14;3.60;;;3.30;;
23800;SDS011;12081;48.614;10.226;2023-11-19T17:24:58;3.60;;;3.30;;
23800;SDS011;12081;48.614;10.226;2023-11-19T17:27:43;2.17;;;1.60;;
23800;SDS011;12081;48.614;10.226;2023-11-19T17:30:29;2.37;;;2.17;;
23800;SDS011;12081;48.614;10.226;2023-11-19T17:33:13;1.90;;;1.60;;
23800;SDS011;12081;48.614;10.226;2023-11-19T17:35:57;1.90;;;1.27;;
23800;SDS011;12081;48.614;10.226;2023-11-19T17:38:41;1.50;;;1.07;;
23800;SDS011;12081;48.614;10.226;2023-11-19T17:41:26;1.67;;;0.90;;
23800;SDS011;12081;48.614;10.226;2023-11-19T17:44:10;1.00;;;0.87;;
23800;SDS011;12081;48.614;10.226;2023-11-19T17:46:54;0.60;;;0.60;;
23800;SDS011;12081;48.614;10.226;2023-11-19T17:49:38;1.70;;;0.60;;
23800;SDS011;12081;48.614;10.226;2023-11-19T17:52:23;2.33;;;0.80;;
23800;SDS011;12081;48.614;10.226;2023-11-19T17:55:08;0.90;;;0.70;;
23800;SDS011;12081;48.614;10.226;2023-11-19T17:57:56;1.30;;;0.60;;
23800;SDS011;12081;48.614;10.226;2023-11-19T18:00:40;1.00;;;0.80;;
23800;SDS011;12081;48.614;10.226;2023-11-19T18:03:24;1.30;;;0.60;;
23800;SDS011;12081;48.614;10.226;2023-11-19T18:06:15;1.10;;;0.60;;
23800;SDS011;12081;48.614;10.226;2023-11-19T18:09:02;4.20;;;0.90;;
23800;SDS011;12081;48.614;10.226;2023-11-19T18:11:49;1.10;;;0.80;;
23800;SDS011;12081;48.614;10.226;2023-11-19T18:14:38;1.90;;;0.80;;
23800;SDS011;12081;48.614;10.226;2023-11-19T18:17:22;3.03;;;0.80;;
23800;SDS011;12081;48.614;10.226;2023-11-19T18:20:06;2.03;;;1.00;;
23800;SDS011;12081;48.614;10.226;2023-11-19T18:22:52;4.43;;;1.67;;
23800;SDS011;12081;48.614;10.226;2023-11-19T18:25:38;3.27;;;1.07;;
23800;SDS011;12081;48.614;10.226;2023-11-19T18:28:22;1.27;;;0.63;;
23800;SDS011;12081;48.614;10.226;2023-11-19T18:31:08;2.30;;;0.50;;
23800;SDS011;12081;48.614;10.226;2023-11-19T18:33:52;2.07;;;0.93;;
23800;SDS011;12081;48.614;10.226;2023-11-19T18:36:36;1.80;;;0.90;;
23800;SDS011;12081;48.614;10.226;2023-11-19T18:39:21;1.67;;;0.80;;
23800;SDS011;12081;48.614;10.226;2023-11-19T18:42:05;2.57;;;0.83;;
23800;SDS011;12081;48.614;10.226;2023-11-19T18:44:49;1.33;;;0.63;;
23800;SDS011;12081;48.614;10.226;2023-11-19T18:47:33;2.10;;;0.80;;
23800;SDS011;12081;48.614;10.226;2023-11-19T18:50:17;1.70;;;0.80;;
23800;SDS011;12081;48.614;10.226;2023-11-19T18:53:01;1.13;;;0.80;;
23800;SDS011;12081;48.614;10.226;2023-11-19T18:55:46;2.23;;;0.90;;
23800;SDS011;12081;48.614;10.226;2023-11-19T18:58:31;0.80;;;0.63;;
23800;SDS011;12081;48.614;10.226;2023-11-19T19:01:15;2.27;;;0.80;;
23800;SDS011;12081;48.614;10.226;2023-11-19T19:04:01;1.23;;;0.70;;
23800;SDS011;12081;48.614;10.226;2023-11-19T19:06:45;1.40;;;0.97;;
23800;SDS011;12081;48.614;10.226;2023-11-19T19:09:32;1.47;;;1.03;;
23800;SDS011;12081;48.614;10.226;2023-11-19T19:12:16;1.20;;;0.70;;
23800;SDS011;12081;48.614;10.226;2023-11-19T19:15:00;1.50;;;0.90;;
23800;SDS011;12081;48.614;10.226;2023-11-19T19:17:44;6.50;;;1.00;;
23800;SDS011;12081;48.614;10.226;2023-11-19T19:20:28;1.73;;;1.00;;
23800;SDS011;12081;48.614;10.226;2023-11-19T19:23:13;2.07;;;0.83;;
23800;SDS011;12081;48.614;10.226;2023-11-19T19:25:57;2.07;;;0.70;;
23800;SDS011;12081;48.614;10.226;2023-11-19T19:28:41;2.40;;;1.10;;
23800;SDS011;12081;48.614;10.226;2023-11-19T19:31:26;2.57;;;0.83;;
23800;SDS011;12081;48.614;10.226;2023-11-19T19:34:11;2.47;;;0.80;;
23800;SDS011;12081;48.614;10.226;2023-11-19T19:36:56;2.67;;;0.83;;
23800;SDS011;12081;48.614;10.226;2023-11-19T19:39:41;2.77;;;0.97;;
23800;SDS011;12081;48.614;10.226;2023-11-19T19:42:25;2.37;;;1.30;;